Time;durP1;ratioP1;P1;durP2;ratioP2;P2;SDS_P1;SDS_P2;PMS_P1;PMS_P2;Temp;Humidity;BMP_temperature;BMP_pressure;BME280_temperature;BME280_humidity;BME280_pressure;Samples;Min_cycle;Max_cycle;Signal;HPM_P1;HPM_P2
2021/05/01 00:01:00;;;;;;;3.78;1.40;;;;;;;18.38;55.55;93020.41;5108919;28;20046;-82
2021/05/01 00:03:26;;;;;;;4.03;1.27;;;;;;;18.33;55.74;93022.25;5108797;28;20056;-82
2021/05/01 00:05:53;;;;;;;6.03;1.30;;;;;;;18.18;55.72;92992.59;5108973;28;20402;-85
2021/05/01 00:08:19;;;;;;;8.95;2.20;;;;;;;18.32;56.58;93028.50;5111737;28;20054;-87
2021/05/01 00:10:45;;;;;;;7.60;1.75;;;;;;;17.92;56.30;92969.22;5112836;28;20067;-85
2021/05/01 00:13:12;;;;;;;4.82;1.50;;;;;;;17.96;56.44;92998.06;5112544;28;20506;-86
2021/05/01 00:15:39;;;;;;;6.80;1.67;;;;;;;18.00;57.19;93012.88;5112586;28;20048;-86
2021/05/01 00:18:05;;;;;;;4.45;2.28;;;;;;;17.57;57.86;92965.59;5112284;28;20051;-86
2021/05/01 00:20:32;;;;;;;5.53;2.28;;;;;;;17.52;58.53;92987.13;5112237;27;20051;-89
2021/05/01 00:22:58;;;;;;;4.80;1.27;;;;;;;17.75;58.95;93021.44;5112462;28;20055;-89
2021/05/01 00:25:26;;;;;;;4.30;1.73;;;;;;;17.44;58.75;92979.84;5112128;28;20430;-88
2021/05/01 00:27:53;;;;;;;2.97;1.90;;;;;;;17.65;60.60;93032.59;5111877;28;20058;-90
2021/05/01 00:30:20;;;;;;;7.15;1.73;;;;;;;17.59;60.43;93039.59;5112400;28;20048;-89
2021/05/01 00:32:47;;;;;;;22.48;2.22;;;;;;;17.29;59.81;92998.78;5112173;28;20418;-87
2021/05/01 00:35:13;;;;;;;7.22;1.88;;;;;;;17.17;60.27;92994.59;5111695;28;20100;-87
2021/05/01 00:37:40;;;;;;;3.35;1.75;;;;;;;17.18;60.13;92993.56;5111943;28;20423;-86
2021/05/01 00:40:07;;;;;;;10.30;1.80;;;;;;;17.26;61.34;93018.25;5111976;28;20058;-87
2021/05/01 00:42:34;;;;;;;5.78;2.13;;;;;;;17.24;61.86;93043.69;5111782;28;20096;-88
2021/05/01 00:45:01;;;;;;;7.68;2.50;;;;;;;16.94;61.43;92980.25;5111842;28;20054;-88
2021/05/01 00:47:27;;;;;;;5.25;1.30;;;;;;;17.22;60.30;92991.25;5112251;28;20383;-88
2021/05/01 00:49:54;;;;;;;8.80;3.08;;;;;;;17.41;61.69;93042.69;5111574;28;20050;-88
2021/05/01 00:52:21;;;;;;;7.18;1.80;;;;;;;17.34;61.28;93055.91;5111930;28;20047;-87
2021/05/01 00:54:47;;;;;;;3.47;1.55;;;;;;;17.32;62.32;93042.41;5111652;28;21096;-86
2021/05/01 00:57:14;;;;;;;7.63;2.00;;;;;;;17.32;62.07;93034.63;5112080;27;20078;-86
2021/05/01 00:59:40;;;;;;;8.23;1.98;;;;;;;17.31;62.44;93036.44;5112467;28;20043;-86
2021/05/01 01:02:06;;;;;;;7.53;1.70;;;;;;;17.03;63.57;93003.91;5111888;27;20052;-86
2021/05/01 01:04:33;;;;;;;6.90;2.50;;;;;;;17.12;62.96;93028.31;5111723;28;20411;-85
2021/05/01 01:07:00;;;;;;;6.05;2.47;;;;;;;17.27;62.56;93030.19;5111719;28;20051;-84
2021/05/01 01:09:27;;;;;;;6.95;2.15;;;;;;;17.28;63.15;93033.56;5111538;28;20047;-86
2021/05/01 01:11:53;;;;;;;9.10;2.10;;;;;;;17.26;62.72;93033.81;5111426;28;20047;-86
2021/05/01 01:14:20;;;;;;;5.50;2.53;;;;;;;16.81;63.01;92961.50;5111301;28;20055;-85
2021/05/01 01:16:46;;;;;;;11.68;2.35;;;;;;;17.27;62.48;93016.44;5111489;28;20055;-86
2021/05/01 01:19:13;;;;;;;5.82;1.55;;;;;;;17.35;61.95;93023.72;5111014;28;20048;-86
2021/05/01 01:21:43;;;;;;;4.40;1.80;;;;;;;17.38;62.10;93022.41;5111080;28;20060;-86
2021/05/01 01:24:11;;;;;;;5.22;2.22;;;;;;;17.36;61.41;93007.13;5111136;28;20099;-85
2021/05/01 01:26:39;;;;;;;8.77;1.60;;;;;;;17.45;61.31;93025.56;5105411;27;20039;-85
2021/05/01 01:29:07;;;;;;;4.05;1.48;;;;;;;17.29;60.59;92994.38;5121889;27;20047;-85
2021/05/01 01:31:33;;;;;;;5.10;2.03;;;;;;;17.43;60.88;93012.03;5110944;28;20039;-85
2021/05/01 01:34:01;;;;;;;7.00;2.95;;;;;;;17.45;61.38;93004.78;5110852;28;20051;-85
2021/05/01 01:36:27;;;;;;;3.83;1.52;;;;;;;17.16;61.76;92974.88;5111228;28;20168;-87
2021/05/01 01:38:54;;;;;;;3.40;1.45;;;;;;;17.03;62.61;92967.59;5110505;28;20047;-84
2021/05/01 01:41:22;;;;;;;7.68;1.80;;;;;;;17.16;63.03;93013.81;5110886;28;20044;-82
2021/05/01 01:43:48;;;;;;;3.88;1.45;;;;;;;17.12;63.43;93017.94;5110934;28;20074;-81
2021/05/01 01:46:15;;;;;;;3.13;1.48;;;;;;;17.11;63.00;93013.78;5110668;28;20040;-82
2021/05/01 01:48:41;;;;;;;5.05;2.30;;;;;;;17.04;63.50;93019.22;5110603;28;20539;-83
2021/05/01 01:51:07;;;;;;;4.03;1.95;;;;;;;16.99;64.46;93013.22;5110469;28;20047;-82
2021/05/01 01:53:33;;;;;;;;;;;;;;;16.91;64.21;93011.88;5110868;28;20052;-82
2021/05/01 01:56:00;;;;;;;8.98;2.45;;;;;;;16.88;64.81;93009.78;5111031;28;19987;-84
2021/05/01 01:58:27;;;;;;;4.50;1.90;;;;;;;16.86;65.72;93017.03;5110920;28;20384;-84
2021/05/01 02:00:54;;;;;;;14.07;1.95;;;;;;;16.61;65.22;92985.56;5110532;28;20445;-84
2021/05/01 02:03:21;;;;;;;3.63;1.35;;;;;;;16.61;65.77;92989.97;5110446;28;20075;-84
2021/05/01 02:05:48;;;;;;;4.70;1.75;;;;;;;16.59;66.11;93002.38;5110247;28;20548;-84
2021/05/01 02:08:15;;;;;;;2.80;1.67;;;;;;;16.47;66.65;93000.00;5110505;28;20395;-85
2021/05/01 02:10:41;;;;;;;5.75;1.48;;;;;;;16.50;66.51;93023.63;5110246;28;20039;-85
2021/05/01 02:13:08;;;;;;;7.88;2.13;;;;;;;16.44;67.32;93024.63;5110383;28;20126;-85
2021/05/01 02:15:36;;;;;;;5.03;1.70;;;;;;;16.39;67.02;93024.59;5110228;28;20385;-84
2021/05/01 02:18:05;;;;;;;5.53;2.17;;;;;;;16.37;66.63;93032.63;5110286;28;20202;-84
2021/05/01 02:20:34;;;;;;;9.10;2.75;;;;;;;16.30;67.91;93032.81;5109895;28;20043;-84
2021/05/01 02:23:01;;;;;;;5.70;2.10;;;;;;;16.12;68.45;93018.44;5110139;28;20051;-84
2021/05/01 02:25:27;;;;;;;3.97;2.13;;;;;;;16.06;70.34;93029.03;5110190;28;20410;-84
2021/05/01 02:27:54;;;;;;;4.32;1.58;;;;;;;15.93;70.46;93014.69;5109703;28;20100;-84
2021/05/01 02:30:23;;;;;;;4.35;1.50;;;;;;;15.85;70.91;93023.66;5109424;28;20093;-84
2021/05/01 02:32:51;;;;;;;2.72;1.60;;;;;;;15.90;70.56;93023.69;5109661;28;20451;-84
2021/05/01 02:35:19;;;;;;;9.50;2.13;;;;;;;15.99;70.20;93026.66;5110051;28;20124;-84
2021/05/01 02:37:47;;;;;;;8.52;2.17;;;;;;;15.89;69.69;92994.41;5109830;28;20510;-84
2021/05/01 02:40:15;;;;;;;5.28;2.28;;;;;;;16.01;69.66;93012.41;5109902;28;20046;-85
2021/05/01 02:42:42;;;;;;;3.63;1.85;;;;;;;15.94;70.44;93011.84;5109658;28;20490;-85
2021/05/01 02:45:11;;;;;;;7.43;3.00;;;;;;;15.92;70.81;93013.88;5109604;28;20039;-84
2021/05/01 02:47:38;;;;;;;6.38;2.20;;;;;;;15.92;69.82;93006.09;5109553;28;20050;-84
2021/05/01 02:50:08;;;;;;;5.43;1.60;;;;;;;16.01;69.50;92990.91;5109603;28;20039;-84
2021/05/01 02:52:34;;;;;;;4.63;2.20;;;;;;;15.82;68.94;92964.56;5109434;28;20056;-84
2021/05/01 02:55:00;;;;;;;8.57;1.85;;;;;;;16.02;68.70;93000.25;5109725;28;20153;-83
2021/05/01 02:57:27;;;;;;;4.93;1.85;;;;;;;16.01;69.07;93009.03;5109845;28;20489;-83
2021/05/01 02:59:53;;;;;;;;;;;;;;;16.03;69.73;93019.94;5110066;28;20039;-83
2021/05/01 03:02:19;;;;;;;2.90;1.10;;;;;;;15.83;69.97;92995.41;5109529;28;19923;-83
2021/05/01 03:04:45;;;;;;;6.22;1.63;;;;;;;15.29;69.79;92910.84;5109576;28;20048;-86
2021/05/01 03:07:13;;;;;;;3.70;1.67;;;;;;;15.99;70.16;93021.47;5109364;28;20560;-85
2021/05/01 03:09:39;;;;;;;5.28;2.10;;;;;;;16.03;69.00;93025.13;5109725;28;20058;-83
2021/05/01 03:12:06;;;;;;;4.40;1.70;;;;;;;16.15;67.65;93030.91;4775134;28;20064;-84
2021/05/01 03:14:32;;;;;;;4.57;1.65;;;;;;;15.74;68.66;92976.97;4781944;28;20088;-87
2021/05/01 03:16:59;;;;;;;4.95;1.92;;;;;;;16.12;68.31;93025.44;5024521;28;20109;-86
2021/05/01 03:19:25;;;;;;;6.63;3.30;;;;;;;16.14;68.15;93026.75;5088962;28;20052;-86
2021/05/01 03:21:53;;;;;;;3.05;1.52;;;;;;;15.95;68.03;93005.63;5088912;28;20052;-84
2021/05/01 03:24:20;;;;;;;4.82;2.17;;;;;;;16.04;69.05;93034.47;5088906;28;20078;-84
2021/05/01 03:26:46;;;;;;;9.57;1.90;;;;;;;16.00;67.82;93026.41;5089362;28;20044;-85
2021/05/01 03:29:12;;;;;;;;;;;;;;;15.97;68.84;93042.44;5089591;28;20055;-84
2021/05/01 03:31:40;;;;;;;3.63;1.60;;;;;;;15.79;69.39;93027.25;5089206;28;19977;-83
2021/05/01 03:34:06;;;;;;;5.93;1.52;;;;;;;15.85;70.06;93036.59;5088614;28;20044;-84
2021/05/01 03:36:33;;;;;;;5.15;1.90;;;;;;;15.86;68.26;93036.38;5089053;28;20059;-85
2021/05/01 03:39:02;;;;;;;5.00;2.20;;;;;;;15.86;68.42;93035.56;5088604;28;20040;-85
2021/05/01 03:41:29;;;;;;;10.55;2.92;;;;;;;15.68;69.01;93003.06;5090699;28;20079;-85
2021/05/01 03:43:55;;;;;;;5.43;2.47;;;;;;;15.85;68.59;93028.84;5092580;28;20058;-85
2021/05/01 03:46:22;;;;;;;5.65;2.00;;;;;;;15.85;68.25;93027.03;5092783;28;20052;-84
2021/05/01 03:48:48;;;;;;;5.80;2.63;;;;;;;15.88;68.51;93023.19;5092537;28;20052;-83
2021/05/01 03:51:14;;;;;;;7.68;1.88;;;;;;;15.88;68.23;93028.34;5092374;28;20044;-84
2021/05/01 03:53:41;;;;;;;7.70;2.40;;;;;;;15.94;68.50;93018.84;5092907;28;20044;-83
2021/05/01 03:56:07;;;;;;;5.13;2.13;;;;;;;16.00;68.25;93018.63;5092641;28;20051;-83
2021/05/01 03:58:35;;;;;;;3.88;1.88;;;;;;;16.01;67.53;93022.78;5092645;28;21034;-84
2021/05/01 04:01:01;;;;;;;7.82;2.05;;;;;;;16.07;67.42;93030.59;5092685;28;20437;-83
2021/05/01 04:03:27;;;;;;;3.95;1.75;;;;;;;16.00;67.32;93017.84;5092600;28;20416;-85
2021/05/01 04:05:53;;;;;;;;;;;;;;;16.11;67.41;93040.22;5092933;28;20044;-85
2021/05/01 04:08:20;;;;;;;5.40;1.67;;;;;;;16.11;68.04;93044.63;5092127;28;19927;-85
2021/05/01 04:10:46;;;;;;;4.13;2.08;;;;;;;16.06;67.19;93027.22;5092508;28;20044;-84
2021/05/01 04:13:12;;;;;;;7.88;2.78;;;;;;;16.13;67.11;93032.19;5095833;28;20092;-84
2021/05/01 04:15:40;;;;;;;8.18;2.78;;;;;;;16.19;66.62;93035.63;5103025;28;20055;-85
2021/05/01 04:18:12;;;;;;;6.18;2.33;;;;;;;16.24;66.83;93033.81;5100987;28;20051;-85
2021/05/01 04:20:38;;;;;;;5.20;2.13;;;;;;;16.35;66.68;93039.88;5102598;28;20039;-85
2021/05/01 04:23:04;;;;;;;;;;;;;;;16.49;67.20;93036.84;5093644;28;20478;-85
2021/05/01 04:25:30;;;;;;;11.75;2.63;;;;;;;16.61;66.66;93031.47;5103277;28;19927;-85
2021/05/01 04:27:57;;;;;;;8.63;2.35;;;;;;;16.72;65.98;93033.06;5106972;28;20063;-85
2021/05/01 04:30:23;;;;;;;4.22;2.08;;;;;;;16.88;64.81;93025.34;5102467;28;20043;-85
2021/05/01 04:32:51;;;;;;;7.00;3.08;;;;;;;17.03;64.88;93014.28;5101514;28;20415;-85
2021/05/01 04:35:17;;;;;;;5.45;2.55;;;;;;;17.16;63.01;93015.59;5091799;28;20044;-86
2021/05/01 04:37:43;;;;;;;5.45;2.03;;;;;;;17.23;62.32;93014.34;5091590;28;20102;-85
2021/05/01 04:40:11;;;;;;;2.45;1.48;;;;;;;17.12;61.71;92979.00;5091705;28;20106;-87
2021/05/01 04:42:45;;;;;;;2.58;1.40;;;;;;;17.45;60.93;93012.59;5102627;28;20526;-86
2021/05/01 04:45:12;;;;;;;7.65;2.17;;;;;;;17.63;60.25;93019.88;5111744;28;20051;-85
2021/05/01 04:47:39;;;;;;;6.18;2.20;;;;;;;17.52;59.87;92992.34;5111666;28;20062;-86
2021/05/01 04:50:07;;;;;;;6.38;2.30;;;;;;;17.63;60.01;92986.13;5112018;28;20055;-86
2021/05/01 04:52:33;;;;;;;4.53;1.88;;;;;;;17.95;59.46;93028.47;5110880;28;20686;-86
2021/05/01 04:55:03;;;;;;;6.65;1.52;;;;;;;17.99;59.44;93024.31;5111684;28;20100;-86
2021/05/01 04:57:29;;;;;;;6.78;2.25;;;;;;;18.07;58.87;93028.25;5108820;28;20048;-86
2021/05/01 04:59:56;;;;;;;6.78;2.17;;;;;;;18.16;58.02;93018.09;5091260;28;20070;-86
2021/05/01 05:02:22;;;;;;;5.15;1.67;;;;;;;18.07;57.50;93004.06;5091398;28;20051;-86
2021/05/01 05:04:48;;;;;;;3.40;1.85;;;;;;;18.21;57.08;93015.50;5091246;28;20052;-85
2021/05/01 05:07:16;;;;;;;6.25;2.03;;;;;;;18.38;56.81;93032.63;5091194;28;20062;-84
2021/05/01 05:09:42;;;;;;;4.53;2.05;;;;;;;18.42;55.92;93034.44;5091297;28;20075;-84
2021/05/01 05:12:09;;;;;;;5.25;1.80;;;;;;;18.59;55.74;93038.56;5091133;28;20044;-84
2021/05/01 05:14:35;;;;;;;7.35;1.55;;;;;;;18.65;55.45;93034.91;5091175;28;20048;-84
2021/05/01 05:17:01;;;;;;;11.68;2.00;;;;;;;18.74;54.81;93029.19;5091121;28;20051;-84
2021/05/01 05:19:28;;;;;;;3.92;1.50;;;;;;;19.08;54.80;93038.97;5104595;28;20048;-85
2021/05/01 05:21:54;;;;;;;6.80;2.13;;;;;;;19.16;53.45;93025.41;5108017;28;20047;-84
2021/05/01 05:24:21;;;;;;;2.38;0.95;;;;;;;19.55;52.69;93036.94;5108557;28;20054;-83
2021/05/01 05:26:47;;;;;;;4.60;1.90;;;;;;;19.71;51.75;93034.19;5110286;27;20054;-83
2021/05/01 05:29:14;;;;;;;8.98;2.03;;;;;;;19.90;51.19;93045.56;5111032;28;20384;-84
2021/05/01 05:31:40;;;;;;;6.15;1.88;;;;;;;20.01;50.12;93043.66;5107553;28;20044;-83
2021/05/01 05:34:06;;;;;;;3.40;1.20;;;;;;;19.95;50.36;93038.75;5091749;28;20040;-84
2021/05/01 05:36:33;;;;;;;3.47;1.50;;;;;;;19.85;50.25;93042.19;5090599;28;20043;-85
2021/05/01 05:38:59;;;;;;;4.03;1.33;;;;;;;19.80;50.71;93050.84;5090714;28;20445;-84
2021/05/01 05:41:28;;;;;;;9.55;2.90;;;;;;;20.02;50.55;93057.50;5090260;28;20051;-83
2021/05/01 05:43:54;;;;;;;5.10;1.98;;;;;;;20.26;49.97;93057.56;5090371;28;20072;-83
2021/05/01 05:46:21;;;;;;;3.20;1.35;;;;;;;20.39;49.38;93016.25;5090127;28;20048;-86
2021/05/01 05:48:47;;;;;;;5.20;1.35;;;;;;;20.58;48.51;93026.75;5090492;28;20407;-84
2021/05/01 05:51:13;;;;;;;7.18;2.75;;;;;;;20.89;48.44;93041.34;5089949;28;20044;-85
2021/05/01 05:53:40;;;;;;;2.47;1.55;;;;;;;20.75;47.50;92981.97;5090247;28;20058;-89
2021/05/01 05:56:07;;;;;;;18.30;2.75;;;;;;;21.36;47.25;93052.03;5090405;28;20087;-83
2021/05/01 05:58:35;;;;;;;8.90;1.40;;;;;;;21.51;46.36;93042.44;5090210;28;20048;-82
2021/05/01 06:01:01;;;;;;;5.13;1.70;;;;;;;21.67;46.21;93050.84;5090292;28;20394;-81
2021/05/01 06:03:28;;;;;;;3.95;1.67;;;;;;;21.82;45.88;93057.72;5090177;28;20051;-82
2021/05/01 06:06:03;;;;;;;5.20;1.30;;;;;;;21.98;45.29;93053.06;5089520;28;20404;-82
2021/05/01 06:08:30;;;;;;;2.53;1.42;;;;;;;22.05;45.22;93053.44;5089792;28;20044;-83
2021/05/01 06:10:58;;;;;;;4.05;1.83;;;;;;;22.14;44.65;93027.41;5090122;28;20073;-83
2021/05/01 06:13:26;;;;;;;5.13;1.40;;;;;;;22.55;43.59;93044.31;5089986;28;20051;-84
2021/05/01 06:15:57;;;;;;;7.43;1.40;;;;;;;22.79;42.84;93045.97;5089749;28;20044;-83
2021/05/01 06:18:26;;;;;;;3.67;1.38;;;;;;;23.11;42.18;93039.09;5094814;28;20044;-84
2021/05/01 06:20:52;;;;;;;4.15;1.98;;;;;;;23.32;41.71;93030.81;5110128;28;20051;-83
2021/05/01 06:23:19;;;;;;;3.75;1.70;;;;;;;23.62;41.79;93032.03;5109753;28;20524;-83
2021/05/01 06:25:46;;;;;;;3.50;1.40;;;;;;;23.92;40.46;93025.63;5110153;28;20098;-84
2021/05/01 06:28:13;;;;;;;6.97;1.88;;;;;;;23.80;40.07;93003.34;5109258;28;20051;-85
2021/05/01 06:30:40;;;;;;;2.25;1.15;;;;;;;24.08;39.82;93015.56;5110051;28;20051;-86
2021/05/01 06:33:08;;;;;;;4.18;1.30;;;;;;;24.19;40.15;93002.97;5094723;28;20419;-85
2021/05/01 06:35:36;;;;;;;7.30;1.75;;;;;;;24.41;39.82;92997.72;5089484;28;20081;-84
2021/05/01 06:38:02;;;;;;;2.83;1.35;;;;;;;24.64;39.29;93012.63;5089617;28;20145;-85
2021/05/01 06:40:33;;;;;;;4.00;1.23;;;;;;;24.80;39.14;93012.97;5089680;28;20044;-86
2021/05/01 06:43:07;;;;;;;5.60;1.23;;;;;;;24.66;38.74;93000.72;5102291;28;20414;-84
2021/05/01 06:45:35;;;;;;;4.63;1.65;;;;;;;24.83;39.04;93022.91;5109808;28;20108;-83
2021/05/01 06:48:05;;;;;;;4.85;2.03;;;;;;;24.89;38.63;93031.41;5109685;28;20048;-82
2021/05/01 06:50:32;;;;;;;3.70;1.40;;;;;;;24.97;38.13;93045.66;5109772;28;20055;-82
2021/05/01 06:52:59;;;;;;;5.55;1.45;;;;;;;24.99;38.45;93059.28;5109580;28;20513;-84
2021/05/01 06:55:29;;;;;;;4.47;1.40;;;;;;;24.98;38.35;93060.38;5109476;28;20079;-83
2021/05/01 06:57:57;;;;;;;4.50;1.55;;;;;;;24.87;37.74;93073.78;5109850;28;20983;-82
2021/05/01 07:00:25;;;;;;;2.40;1.50;;;;;;;24.97;38.19;93092.97;5109754;28;20180;-83
2021/05/01 07:02:55;;;;;;;5.47;1.70;;;;;;;25.03;38.29;93089.91;5109332;28;20506;-82
2021/05/01 07:05:23;;;;;;;4.38;1.42;;;;;;;25.19;38.46;93092.13;5109639;28;21275;-82
2021/05/01 07:07:50;;;;;;;4.50;1.60;;;;;;;25.13;38.79;93115.13;5109435;28;20089;-82
2021/05/01 07:10:18;;;;;;;4.65;1.52;;;;;;;25.16;38.12;93105.88;5097136;28;20052;-82
2021/05/01 07:12:45;;;;;;;3.28;1.70;;;;;;;25.13;38.63;93111.75;5088465;28;20138;-82
2021/05/01 07:15:13;;;;;;;6.43;1.77;;;;;;;25.32;38.07;93112.25;5086994;28;20071;-82
2021/05/01 07:17:40;;;;;;;3.40;1.60;;;;;;;25.29;37.63;93104.22;5106863;28;20105;-83
2021/05/01 07:20:09;;;;;;;6.47;2.40;;;;;;;25.22;38.36;93105.44;5092792;28;20118;-82
2021/05/01 07:22:36;;;;;;;14.52;2.60;;;;;;;25.32;38.55;93107.00;5090226;28;20044;-82
2021/05/01 07:25:04;;;;;;;3.45;1.50;;;;;;;25.45;37.64;93104.56;5091683;28;20051;-82
2021/05/01 07:27:33;;;;;;;7.53;1.90;;;;;;;25.57;37.93;93107.41;5092156;28;20094;-82
2021/05/01 07:30:01;;;;;;;5.72;1.45;;;;;;;25.72;37.36;93123.81;5092294;28;20051;-82
2021/05/01 07:32:31;;;;;;;5.47;1.95;;;;;;;25.58;37.68;93124.72;5099483;28;20044;-82
2021/05/01 07:34:58;;;;;;;4.30;1.42;;;;;;;25.65;37.82;93121.66;5093066;28;20411;-82
2021/05/01 07:37:29;;;;;;;6.75;2.13;;;;;;;25.67;38.02;93123.97;5092455;28;20044;-82
2021/05/01 07:39:57;;;;;;;6.20;2.58;;;;;;;25.53;37.36;93119.59;5095490;28;20044;-82
2021/05/01 07:42:25;;;;;;;2.58;1.23;;;;;;;25.43;37.55;93119.88;5092602;28;20048;-82
2021/05/01 07:44:52;;;;;;;6.93;1.83;;;;;;;25.60;38.37;93125.19;5092022;28;20056;-82
2021/05/01 07:47:23;;;;;;;4.35;1.33;;;;;;;25.85;38.36;93125.56;5091605;28;20451;-83
2021/05/01 07:49:50;;;;;;;5.25;2.10;;;;;;;25.85;37.10;93128.19;5103340;28;20051;-83
2021/05/01 07:52:17;;;;;;;8.45;2.47;;;;;;;25.66;37.46;93131.09;5100261;28;20093;-83
2021/05/01 07:54:44;;;;;;;4.60;1.83;;;;;;;25.80;37.05;93124.91;5091104;28;20040;-82
2021/05/01 07:57:10;;;;;;;5.38;1.40;;;;;;;25.84;36.66;93131.91;5092284;28;20048;-83
2021/05/01 07:59:37;;;;;;;6.47;2.03;;;;;;;25.91;37.06;93128.03;5092357;28;20396;-82
2021/05/01 08:02:04;;;;;;;7.18;1.83;;;;;;;25.97;36.68;93121.53;5092286;28;20513;-83
2021/05/01 08:04:31;;;;;;;5.57;1.77;;;;;;;26.16;36.46;93123.88;5094288;28;20526;-83
2021/05/01 08:06:58;;;;;;;14.50;1.67;;;;;;;26.36;36.38;93119.88;5112557;28;20047;-84
2021/05/01 08:09:24;;;;;;;3.42;1.25;;;;;;;26.39;36.23;93118.47;5112686;28;20040;-83
2021/05/01 08:11:51;;;;;;;5.93;2.15;;;;;;;26.48;35.45;93113.94;5112618;28;20054;-84
2021/05/01 08:14:17;;;;;;;4.20;1.30;;;;;;;26.48;35.24;93100.00;5112442;28;20052;-83
2021/05/01 08:16:44;;;;;;;5.13;2.22;;;;;;;26.70;34.90;93111.44;5112479;28;20521;-83
2021/05/01 08:19:11;;;;;;;4.85;1.98;;;;;;;26.88;35.64;93109.53;5100635;28;20093;-84
2021/05/01 08:21:37;;;;;;;8.30;3.70;;;;;;;26.94;35.40;93116.97;5102415;28;20052;-83
2021/05/01 08:24:04;;;;;;;3.80;1.83;;;;;;;27.08;34.80;93116.75;5112090;28;20067;-83
2021/05/01 08:26:31;;;;;;;4.32;1.60;;;;;;;27.34;34.72;93115.09;5112205;27;20512;-83
2021/05/01 08:28:57;;;;;;;5.32;2.00;;;;;;;27.50;33.82;93118.00;5111374;28;20089;-84
2021/05/01 08:31:24;;;;;;;5.78;1.70;;;;;;;27.58;33.74;93126.94;5112037;28;20043;-85
2021/05/01 08:36:35;;;;;;;4.38;1.90;;;;;;;27.53;33.36;93113.94;5112073;28;20054;-83
2021/05/01 08:39:01;;;;;;;8.38;2.05;;;;;;;27.54;34.52;93112.84;5112098;28;20051;-83
2021/05/01 08:41:28;;;;;;;7.90;1.23;;;;;;;27.39;33.50;93108.91;5111971;28;20039;-83
2021/05/01 08:44:03;;;;;;;3.85;1.65;;;;;;;27.39;33.66;93104.38;5112093;28;20059;-83
2021/05/01 08:46:29;;;;;;;9.73;1.88;;;;;;;27.32;32.98;93075.09;5111898;28;20051;-83
2021/05/01 08:48:57;;;;;;;6.10;1.58;;;;;;;27.46;33.18;93080.91;5111962;28;20096;-83
2021/05/01 08:51:23;;;;;;;6.20;1.67;;;;;;;27.33;33.56;93085.34;5111724;28;20093;-83
2021/05/01 08:53:49;;;;;;;5.57;1.80;;;;;;;27.26;33.14;93066.59;5112046;28;20093;-83
2021/05/01 08:56:15;;;;;;;4.80;1.80;;;;;;;27.40;32.96;93068.25;5111861;28;20471;-82
2021/05/01 08:58:42;;;;;;;5.65;1.85;;;;;;;27.17;32.72;93071.91;5111660;27;20077;-83
2021/05/01 09:01:12;;;;;;;5.78;1.52;;;;;;;27.16;33.13;93078.28;5111863;28;20047;-82
2021/05/01 09:03:38;;;;;;;5.50;2.25;;;;;;;27.01;32.93;93082.22;5111403;28;20079;-83
2021/05/01 09:06:08;;;;;;;4.18;1.35;;;;;;;26.91;33.03;93069.38;5111668;28;20047;-83
2021/05/01 09:08:39;;;;;;;9.88;1.90;;;;;;;27.07;33.12;93088.06;5111397;28;20050;-84
2021/05/01 09:11:05;;;;;;;11.35;2.78;;;;;;;27.35;32.72;93093.69;5111580;28;20088;-83
2021/05/01 09:13:32;;;;;;;6.10;1.73;;;;;;;27.19;32.24;93075.00;5111281;28;20051;-82
2021/05/01 09:16:01;;;;;;;6.50;1.92;;;;;;;27.29;33.29;93071.25;5111693;28;20048;-82
2021/05/01 09:18:29;;;;;;;5.05;1.40;;;;;;;27.33;34.02;93076.66;5105563;28;20044;-82
2021/05/01 09:20:55;;;;;;;5.60;1.83;;;;;;;27.23;33.76;93087.56;5091027;28;20052;-82
2021/05/01 09:23:23;;;;;;;4.28;1.40;;;;;;;27.12;33.24;93089.78;5091004;28;20048;-82
2021/05/01 09:25:53;;;;;;;5.50;1.45;;;;;;;27.04;33.62;93086.09;5091128;28;20044;-83
2021/05/01 09:28:20;;;;;;;7.68;1.55;;;;;;;26.98;34.00;93090.00;5090982;28;20131;-82
2021/05/01 09:31:00;;;;;;;4.22;1.65;;;;;;;27.01;33.88;93070.91;5091018;28;20048;-82
2021/05/01 09:33:29;;;;;;;4.65;1.65;;;;;;;27.09;34.04;93067.47;5090871;28;20546;-83
2021/05/01 09:36:01;;;;;;;11.07;1.95;;;;;;;27.05;34.16;93067.31;5090927;28;20707;-83
2021/05/01 09:38:33;;;;;;;6.28;2.75;;;;;;;27.00;34.14;93080.69;5090382;28;20040;-82
2021/05/01 09:41:08;;;;;;;5.43;1.38;;;;;;;26.86;34.12;93059.78;5090627;28;20063;-82
2021/05/01 09:43:34;;;;;;;7.38;1.30;;;;;;;26.97;34.29;93078.66;5090145;28;20040;-83
2021/05/01 09:46:16;;;;;;;8.90;1.38;;;;;;;27.01;34.85;93074.31;5090483;28;20044;-82
2021/05/01 09:48:42;;;;;;;8.00;1.63;;;;;;;26.45;35.05;93003.97;5088284;28;20044;-82
2021/05/01 09:51:08;;;;;;;6.65;2.40;;;;;;;26.95;35.16;93060.53;5090606;28;20048;-82
2021/05/01 09:53:39;;;;;;;6.95;1.88;;;;;;;26.84;34.89;93051.41;5090530;28;20040;-82
2021/05/01 09:56:11;;;;;;;7.30;1.92;;;;;;;26.99;35.11;93052.78;5090377;28;20151;-83
2021/05/01 09:58:51;;;;;;;8.30;2.25;;;;;;;27.11;35.48;93064.53;5090493;28;20132;-83
2021/05/01 10:01:19;;;;;;;5.60;1.60;;;;;;;27.26;35.33;93056.03;5090195;28;20135;-82
2021/05/01 10:03:46;;;;;;;6.10;1.70;;;;;;;27.43;34.84;93063.09;5090057;28;20052;-83
2021/05/01 10:06:16;;;;;;;8.43;1.80;;;;;;;27.61;35.22;93057.72;5094991;28;20104;-83
2021/05/01 10:08:52;;;;;;;3.78;1.40;;;;;;;27.92;33.77;93056.59;5094314;28;20044;-82
2021/05/01 10:11:23;;;;;;;3.13;1.02;;;;;;;28.18;33.67;93052.16;5097151;28;20544;-82
2021/05/01 10:13:53;;;;;;;5.63;1.80;;;;;;;28.47;33.03;93043.34;5087852;28;20520;-82
2021/05/01 10:16:21;;;;;;;5.88;1.92;;;;;;;28.57;32.61;93052.75;5088189;28;20583;-82
2021/05/01 10:19:04;;;;;;;4.65;1.65;;;;;;;28.58;32.03;93046.34;5087007;28;20044;-83
2021/05/01 10:21:31;;;;;;;3.80;1.08;;;;;;;28.73;31.39;93037.00;5088383;28;20093;-83
2021/05/01 10:23:58;;;;;;;6.50;2.45;;;;;;;28.71;31.05;93033.94;5088797;28;20062;-83
2021/05/01 10:26:25;;;;;;;6.72;2.10;;;;;;;28.87;31.52;93035.97;5088703;28;20051;-83
2021/05/01 10:28:55;;;;;;;11.13;2.53;;;;;;;28.76;30.98;93028.44;5088791;28;20052;-82
2021/05/01 10:31:23;;;;;;;7.13;1.80;;;;;;;29.11;31.05;93034.44;5088661;28;20526;-83
2021/05/01 10:33:51;;;;;;;9.68;1.80;;;;;;;29.31;30.61;93028.25;5088699;28;20489;-83
2021/05/01 10:36:21;;;;;;;6.90;1.55;;;;;;;29.41;30.60;93023.59;5088988;28;20079;-83
2021/05/01 10:39:00;;;;;;;6.05;1.83;;;;;;;29.78;30.48;93018.22;5088679;28;20047;-82
2021/05/01 10:41:29;;;;;;;4.30;1.35;;;;;;;29.79;29.78;93003.88;5088925;28;20044;-82
2021/05/01 10:43:57;;;;;;;5.00;1.30;;;;;;;30.00;29.78;92985.16;5088738;28;20056;-86
2021/05/01 10:46:25;;;;;;;3.78;1.00;;;;;;;29.77;29.08;92981.50;5088710;28;20407;-84
2021/05/01 10:48:54;;;;;;;6.68;1.10;;;;;;;29.83;27.53;93007.41;5088254;28;20052;-83
2021/05/01 10:51:22;;;;;;;15.63;7.38;;;;;;;29.76;28.97;93001.91;5088130;28;20047;-83
2021/05/01 10:54:05;;;;;;;8.85;3.90;;;;;;;29.79;29.56;93003.88;5088384;28;20068;-86
2021/05/01 10:56:33;;;;;;;5.53;1.83;;;;;;;29.56;29.38;92995.69;5097049;28;20142;-87
2021/05/01 10:59:07;;;;;;;5.60;1.75;;;;;;;29.12;28.64;92972.50;5108962;28;20059;-85
2021/05/01 11:01:36;;;;;;;6.40;1.70;;;;;;;29.15;29.57;93006.22;5108869;28;20131;-84
2021/05/01 11:04:05;;;;;;;3.53;1.02;;;;;;;29.02;30.07;92994.88;5103487;28;20047;-85
2021/05/01 11:06:38;;;;;;;4.60;1.02;;;;;;;28.82;29.74;93005.19;5106553;28;20510;-84
2021/05/01 11:09:07;;;;;;;4.25;0.93;;;;;;;28.66;30.17;93003.19;5108437;28;20049;-85
2021/05/01 11:11:37;;;;;;;7.95;1.23;;;;;;;28.68;29.61;93011.59;5108380;28;20429;-83
2021/05/01 11:14:23;;;;;;;7.30;2.00;;;;;;;28.54;28.42;92997.91;5108842;28;20116;-84
2021/05/01 11:16:52;;;;;;;;;;;;;;;28.70;26.87;92997.25;5109094;28;20055;-83
2021/05/01 11:19:21;;;;;;;3.30;1.75;;;;;;;29.05;28.71;92986.25;5108785;28;19969;-85
2021/05/01 11:21:48;;;;;;;3.72;1.27;;;;;;;29.16;27.24;92983.97;5108866;28;20047;-85
2021/05/01 11:24:16;;;;;;;3.95;1.58;;;;;;;29.36;27.22;92960.31;5108833;28;20078;-84
2021/05/01 11:26:45;;;;;;;3.45;1.35;;;;;;;29.57;26.85;92960.19;5108424;28;20515;-85
2021/05/01 11:29:13;;;;;;;3.88;1.20;;;;;;;29.92;26.89;92975.50;5107897;28;20092;-88
2021/05/01 11:31:42;;;;;;;8.82;2.05;;;;;;;30.03;26.73;92977.66;5108660;28;20135;-87
2021/05/01 11:34:12;;;;;;;3.10;1.30;;;;;;;29.72;27.02;92974.59;5108293;28;20660;-86
2021/05/01 11:36:46;;;;;;;4.80;1.92;;;;;;;29.13;27.38;92919.28;5108584;28;20044;-86
2021/05/01 11:39:14;;;;;;;4.07;1.77;;;;;;;29.66;26.83;92960.06;5108257;28;20423;-87